LDLO/LSZ METAR and TAF weather

Enter ICAO airport designator
Station Type Date Time Source
LDLO METAR 2019/10/20 14:00 UTC NOAA

LDLO 201400Z 15009KT 9999 FEW010 SCT020 22/18 Q1019


Station Type Date Time Source
LDLO Decoded METAR 2019/10/20 14:00 UTC NOAA

Losinj Island, Croatia (LDLO) 44-33-57N 014-23-35E
Oct 20, 2019 - 10:00 AM EDT / 2019.10.20 1400 UTC
Wind: from the SSE (150 degrees) at 10 MPH (9 KT):0
Visibility: greater than 7 mile(s):0
Sky conditions: partly cloudy
Temperature: 71 F (22 C)
Dew Point: 64 F (18 C)
Relative Humidity: 78%
Pressure (altimeter): 30.09 in. Hg (1019 hPa)
ob: LDLO 201400Z 15009KT 9999 FEW010 SCT020 22/18 Q1019
cycle: 14

Station Type Date Time Source
LDLO TAF 2019/10/20 15:27 UTC NOAA

TAF
AMD LDLO 201523Z 2015/2112 CNL

Example: see airport list